Time;durP1;ratioP1;P1;durP2;ratioP2;P2;SDS_P1;SDS_P2;PMS_P1;PMS_P2;Temp;Humidity;BMP_temperature;BMP_pressure;BME280_temperature;BME280_humidity;BME280_pressure;Samples;Min_cycle;Max_cycle;Signal;HPM_P1;HPM_P2
2021/11/28 00:01:13;;;;;;;28.92;15.98;;;;;;;23.16;19.30;96324.69;5032129;28;20044;-79
2021/11/28 00:03:40;;;;;;;24.80;13.98;;;;;;;23.19;19.06;96317.38;5031848;28;20118;-79
2021/11/28 00:06:14;;;;;;;30.38;15.80;;;;;;;23.67;18.96;96315.50;5029261;28;20508;-78
2021/11/28 00:14:36;;;;;;;24.25;11.30;;;;;;;24.60;17.85;96300.00;5029863;28;20041;-78
2021/11/28 00:17:03;;;;;;;19.58;10.52;;;;;;;24.53;17.75;96299.59;5026297;28;20030;-78
2021/11/28 00:19:55;;;;;;;24.38;12.85;;;;;;;24.39;17.96;96289.09;5027346;28;20030;-79
2021/11/28 00:22:21;;;;;;;26.05;13.02;;;;;;;23.59;18.28;96289.09;5025182;28;20440;-79
2021/11/28 00:25:00;;;;;;;21.17;11.10;;;;;;;23.79;18.34;96283.69;5025882;28;20099;-79
2021/11/28 00:27:27;;;;;;;26.08;13.77;;;;;;;23.83;18.62;96298.31;5030597;28;20025;-79
2021/11/28 00:29:53;;;;;;;26.00;14.98;;;;;;;23.57;18.90;96295.16;5032698;28;20419;-79
2021/11/28 00:32:19;;;;;;;29.73;15.50;;;;;;;23.12;19.86;96286.91;5031939;28;20037;-79
2021/11/28 00:34:45;;;;;;;29.90;15.48;;;;;;;23.16;19.70;96285.50;5032454;28;20044;-79
2021/11/28 00:37:13;;;;;;;28.13;14.15;;;;;;;23.79;19.15;96284.47;5028869;28;20040;-79
2021/11/28 00:39:41;;;;;;;33.03;16.88;;;;;;;24.13;18.79;96282.44;5024514;28;20108;-79
2021/11/28 00:42:08;;;;;;;29.15;15.43;;;;;;;23.96;18.96;96284.84;5027955;28;20033;-79
2021/11/28 00:44:34;;;;;;;29.35;15.38;;;;;;;23.65;19.24;96278.78;5029045;28;20026;-79
2021/11/28 00:47:00;;;;;;;29.25;15.18;;;;;;;23.72;19.23;96270.81;5024549;28;20400;-79
2021/11/28 00:49:27;;;;;;;18.45;10.63;;;;;;;24.18;18.71;96273.38;5031665;28;20037;-79
2021/11/28 00:51:57;;;;;;;24.52;11.13;;;;;;;24.50;18.30;96278.13;5029701;28;20045;-79
2021/11/28 00:54:25;;;;;;;23.67;12.38;;;;;;;24.64;18.06;96278.13;5028721;28;20046;-79
2021/11/28 00:56:52;;;;;;;25.60;15.63;;;;;;;24.49;18.29;96282.94;5031635;28;20439;-79
2021/11/28 00:59:18;;;;;;;33.25;16.80;;;;;;;23.49;19.50;96276.38;5031605;28;20404;-79
2021/11/28 01:01:45;;;;;;;29.77;15.13;;;;;;;23.10;19.85;96289.41;5030491;28;20030;-79
2021/11/28 01:04:11;;;;;;;28.98;14.45;;;;;;;22.86;20.33;96297.69;5031648;28;20485;-79
2021/11/28 01:06:38;;;;;;;28.67;14.93;;;;;;;23.58;19.28;96293.94;5030589;28;20029;-79
2021/11/28 01:09:07;;;;;;;31.40;16.23;;;;;;;24.12;18.71;96290.09;5024794;28;20509;-79
2021/11/28 01:11:34;;;;;;;27.83;13.57;;;;;;;24.53;18.42;96285.56;5028973;28;20033;-79
2021/11/28 01:14:01;;;;;;;26.20;14.55;;;;;;;24.94;17.86;96295.84;5029602;28;20042;-79
2021/11/28 01:16:27;;;;;;;30.85;15.18;;;;;;;24.87;17.73;96304.63;5031747;28;20017;-79
2021/11/28 01:18:54;;;;;;;25.42;13.55;;;;;;;24.65;18.03;96290.91;5021122;28;20375;-79
2021/11/28 01:21:20;;;;;;;29.70;15.68;;;;;;;24.08;18.50;96283.88;5028341;28;20072;-79
2021/11/28 01:23:47;;;;;;;30.25;16.15;;;;;;;23.75;18.75;96275.50;5031263;28;20036;-79
2021/11/28 01:26:13;;;;;;;29.77;16.58;;;;;;;23.33;19.23;96274.72;5029642;28;20033;-78
2021/11/28 01:28:40;;;;;;;22.20;13.43;;;;;;;23.63;18.73;96276.47;5021828;28;20525;-79
2021/11/28 01:31:06;;;;;;;29.02;16.02;;;;;;;23.84;18.98;96272.63;5024224;28;20389;-79
2021/11/28 01:33:33;;;;;;;29.60;14.23;;;;;;;23.56;19.11;96278.84;5031659;28;20128;-79
2021/11/28 01:35:59;;;;;;;28.65;15.80;;;;;;;23.59;19.20;96272.28;5032123;28;20104;-79
2021/11/28 01:38:25;;;;;;;26.13;14.43;;;;;;;23.78;18.85;96268.16;5037645;28;20362;-79
2021/11/28 01:40:53;;;;;;;34.25;15.90;;;;;;;24.11;18.72;96274.50;5037270;28;20040;-79
2021/11/28 01:43:19;;;;;;;31.85;17.60;;;;;;;24.12;18.52;96269.66;5033473;28;20424;-79
2021/11/28 01:45:49;;;;;;;27.50;13.90;;;;;;;24.24;18.29;96275.06;5036697;28;20493;-78
2021/11/28 01:48:17;;;;;;;26.75;14.30;;;;;;;24.37;18.17;96264.34;5037371;28;20073;-79
2021/11/28 01:50:46;;;;;;;24.73;13.35;;;;;;;24.53;18.04;96260.31;5037022;28;20489;-78
2021/11/28 01:53:19;;;;;;;27.75;14.25;;;;;;;24.64;18.03;96266.91;5032066;28;20046;-79
2021/11/28 01:55:46;;;;;;;27.77;13.80;;;;;;;24.85;17.68;96281.13;5032252;28;20022;-79
2021/11/28 01:58:12;;;;;;;34.28;17.33;;;;;;;23.61;18.49;96289.41;5036546;28;20033;-78
2021/11/28 02:00:46;;;;;;;31.48;18.23;;;;;;;22.64;19.83;96292.25;5036430;28;20440;-79
2021/11/28 02:03:13;;;;;;;31.15;17.88;;;;;;;22.40;20.33;96280.13;5037387;28;20095;-79
2021/11/28 02:05:46;;;;;;;34.13;19.40;;;;;;;22.64;20.12;96269.09;5037798;28;20025;-78
2021/11/28 02:08:12;;;;;;;27.95;15.00;;;;;;;23.02;19.64;96274.94;5034335;28;20061;-79
2021/11/28 02:10:38;;;;;;;31.77;16.40;;;;;;;22.97;19.41;96272.78;5037482;28;20030;-79
2021/11/28 02:13:05;;;;;;;35.30;19.67;;;;;;;22.89;19.54;96277.16;5034552;28;20074;-79
2021/11/28 02:15:31;;;;;;;27.63;14.43;;;;;;;23.18;19.37;96277.41;5037343;28;20060;-79
2021/11/28 02:17:58;;;;;;;32.38;15.90;;;;;;;23.60;18.83;96285.03;5031979;28;20125;-78
2021/11/28 02:20:28;;;;;;;27.67;14.60;;;;;;;24.02;18.33;96285.75;5033183;28;20029;-79
2021/11/28 02:22:55;;;;;;;21.27;12.23;;;;;;;24.26;18.06;96297.00;5038002;28;20492;-78
2021/11/28 02:25:24;;;;;;;26.48;13.60;;;;;;;24.44;17.62;96296.84;5036504;28;20025;-78
2021/11/28 02:27:52;;;;;;;25.65;14.10;;;;;;;24.57;17.69;96286.94;5036226;28;20049;-78
2021/11/28 02:30:19;;;;;;;26.65;13.18;;;;;;;24.17;17.88;96306.25;5036092;28;20060;-78
2021/11/28 02:32:47;;;;;;;21.63;12.60;;;;;;;24.40;17.77;96304.69;5035907;28;20028;-78
2021/11/28 02:35:14;;;;;;;21.20;12.00;;;;;;;24.58;17.55;96296.13;5034949;28;20068;-78
2021/11/28 02:37:45;;;;;;;23.92;12.82;;;;;;;24.45;17.52;96293.59;5035789;28;20053;-79
2021/11/28 02:40:14;;;;;;;29.55;15.88;;;;;;;24.03;17.88;96299.31;5036166;28;20464;-78
2021/11/28 02:42:41;;;;;;;26.38;15.52;;;;;;;23.69;18.41;96304.59;5033001;28;20034;-78
2021/11/28 02:45:10;;;;;;;32.83;17.27;;;;;;;23.61;18.37;96314.63;5036181;28;20037;-78
2021/11/28 02:47:37;;;;;;;26.50;13.90;;;;;;;23.50;18.62;96319.97;5035276;28;20041;-78
2021/11/28 02:50:04;;;;;;;26.58;13.85;;;;;;;23.64;18.53;96319.28;5030946;28;21767;-79
2021/11/28 02:52:31;;;;;;;22.10;12.40;;;;;;;23.65;18.19;96320.81;5032811;28;20370;-78
2021/11/28 02:54:57;;;;;;;23.13;12.30;;;;;;;23.98;17.90;96322.38;5028384;28;20041;-78
2021/11/28 02:57:23;;;;;;;25.73;14.57;;;;;;;24.12;17.67;96312.50;5033523;28;20363;-79
2021/11/28 02:59:49;;;;;;;27.85;13.30;;;;;;;23.85;17.90;96313.41;5032128;28;20436;-78
2021/11/28 03:02:16;;;;;;;24.30;12.80;;;;;;;24.10;17.72;96305.81;5031837;28;20029;-79
2021/11/28 03:04:42;;;;;;;23.45;11.65;;;;;;;24.42;17.62;96293.75;5034260;28;20074;-78
2021/11/28 03:07:08;;;;;;;26.50;13.02;;;;;;;24.54;17.32;96281.50;5033892;28;20030;-79
2021/11/28 03:09:34;;;;;;;26.75;13.93;;;;;;;24.36;17.70;96292.88;5032675;28;20112;-79
2021/11/28 03:12:01;;;;;;;19.20;10.88;;;;;;;24.30;17.46;96292.75;5026090;28;20033;-79
2021/11/28 03:14:27;;;;;;;23.98;12.10;;;;;;;24.46;17.58;96285.94;5034108;28;20037;-79
2021/11/28 03:16:53;;;;;;;23.27;12.68;;;;;;;24.48;17.57;96277.84;5034646;28;20029;-79
2021/11/28 03:19:19;;;;;;;20.45;10.85;;;;;;;24.62;17.38;96275.03;5033464;28;20037;-79
2021/11/28 03:21:45;;;;;;;21.75;12.40;;;;;;;24.42;17.84;96274.91;5031852;28;20481;-78
2021/11/28 03:24:12;;;;;;;27.50;14.10;;;;;;;24.41;17.44;96269.78;5034470;28;20037;-79
2021/11/28 03:26:41;;;;;;;23.98;11.65;;;;;;;24.25;17.97;96278.63;5030006;28;20477;-78
2021/11/28 03:29:20;;;;;;;31.20;17.00;;;;;;;23.29;18.76;96297.25;5032191;28;20065;-78
2021/11/28 03:31:52;;;;;;;26.65;13.13;;;;;;;23.28;19.04;96303.34;5030865;28;20083;-79
2021/11/28 03:34:19;;;;;;;28.25;15.73;;;;;;;23.56;18.61;96318.06;5024150;28;20029;-79
2021/11/28 03:36:51;;;;;;;28.48;15.10;;;;;;;23.28;18.79;96315.34;5029654;28;20434;-79
2021/11/28 03:39:23;;;;;;;37.22;19.60;;;;;;;22.13;20.23;96315.66;5032414;28;20080;-79
2021/11/28 03:41:53;;;;;;;27.85;15.70;;;;;;;22.38;20.07;96315.41;5029867;28;20470;-79
2021/11/28 03:44:19;;;;;;;24.15;12.98;;;;;;;22.10;20.35;96319.41;5030928;28;20106;-79
2021/11/28 03:46:46;;;;;;;31.30;14.35;;;;;;;22.34;20.15;96318.34;5031360;28;20029;-79
2021/11/28 03:49:12;;;;;;;28.92;15.70;;;;;;;22.81;19.48;96322.72;5033676;28;20033;-79
2021/11/28 03:51:38;;;;;;;33.28;18.17;;;;;;;22.90;19.38;96319.91;5029886;28;20040;-78
2021/11/28 03:54:04;;;;;;;27.20;14.68;;;;;;;22.88;19.61;96328.78;5031643;28;20037;-79
2021/11/28 03:56:31;;;;;;;34.70;18.17;;;;;;;22.99;19.26;96325.47;5033664;28;20044;-79
2021/11/28 03:58:58;;;;;;;31.92;17.42;;;;;;;22.79;19.39;96317.59;5031801;28;20044;-79
2021/11/28 04:01:24;;;;;;;25.17;13.65;;;;;;;22.72;19.66;96320.72;5031225;28;20025;-79
2021/11/28 04:03:50;;;;;;;27.80;14.95;;;;;;;22.51;19.96;96314.00;5027782;28;20029;-78
2021/11/28 04:06:19;;;;;;;27.85;14.75;;;;;;;22.61;19.89;96312.03;5020000;28;20045;-78
2021/11/28 04:08:45;;;;;;;23.17;12.73;;;;;;;22.99;19.56;96320.66;5016371;28;20693;-79
2021/11/28 04:11:11;;;;;;;26.77;14.57;;;;;;;23.14;19.46;96320.81;5017730;28;20075;-78
2021/11/28 04:13:38;;;;;;;30.65;16.63;;;;;;;23.17;19.36;96303.84;5025382;28;20035;-78
2021/11/28 04:16:04;;;;;;;24.42;13.40;;;;;;;23.35;19.31;96311.44;5015332;28;20037;-79
2021/11/28 04:18:30;;;;;;;21.00;10.60;;;;;;;23.04;19.48;96313.66;5022009;28;20040;-79
2021/11/28 04:20:56;;;;;;;28.10;15.07;;;;;;;22.83;20.03;96315.41;5019306;28;20037;-79
2021/11/28 04:23:23;;;;;;;27.42;15.15;;;;;;;22.77;19.96;96305.31;5023562;28;20075;-79
2021/11/28 04:25:50;;;;;;;22.52;13.40;;;;;;;23.13;19.63;96300.41;5022543;28;20049;-79
2021/11/28 04:28:16;;;;;;;26.63;14.57;;;;;;;23.45;19.43;96307.38;5020211;28;20045;-79
2021/11/28 04:30:42;;;;;;;30.73;15.32;;;;;;;23.96;19.13;96298.88;5027209;28;20041;-79
2021/11/28 04:33:10;;;;;;;21.10;12.02;;;;;;;24.34;18.67;96292.59;5028089;28;20030;-79
2021/11/28 04:35:36;;;;;;;26.00;14.18;;;;;;;24.66;18.16;96289.69;5027599;28;20060;-79
2021/11/28 04:38:03;;;;;;;28.77;14.23;;;;;;;24.63;18.09;96287.03;5027990;28;20165;-79
2021/11/28 04:40:29;;;;;;;26.75;13.60;;;;;;;24.72;18.06;96284.16;5027304;28;20041;-79
2021/11/28 04:42:55;;;;;;;27.48;14.68;;;;;;;24.59;18.15;96276.03;5026123;28;20440;-79
2021/11/28 04:45:21;;;;;;;26.60;14.40;;;;;;;24.70;18.23;96275.44;5030270;28;20041;-79
2021/11/28 04:47:47;;;;;;;23.48;13.77;;;;;;;24.80;17.87;96276.94;5031041;28;20025;-79
2021/11/28 04:50:14;;;;;;;26.30;12.25;;;;;;;24.84;17.79;96271.91;5031639;28;20072;-79
2021/11/28 04:52:41;;;;;;;22.00;11.98;;;;;;;24.93;17.81;96268.22;5030309;28;20037;-79
2021/11/28 04:55:09;;;;;;;22.85;12.50;;;;;;;25.00;17.68;96276.28;5029990;28;20039;-79
2021/11/28 04:57:35;;;;;;;23.67;12.90;;;;;;;25.01;17.84;96273.00;5024850;28;20029;-79
2021/11/28 05:00:06;;;;;;;25.23;14.32;;;;;;;24.57;18.10;96263.72;5026970;28;20116;-79
2021/11/28 05:02:32;;;;;;;;;;;;;;;24.09;18.56;96262.22;5027904;28;20029;-79
2021/11/28 05:04:58;;;;;;;28.65;14.45;;;;;;;23.95;18.86;96270.06;5029737;28;19928;-79
2021/11/28 05:07:24;;;;;;;28.27;15.20;;;;;;;23.39;19.45;96270.03;5027357;28;20052;-79
2021/11/28 05:09:50;;;;;;;25.52;14.48;;;;;;;23.64;19.40;96286.41;5020731;28;20128;-79
2021/11/28 05:12:16;;;;;;;29.48;15.85;;;;;;;24.24;18.70;96291.09;5023880;28;20036;-79
2021/11/28 05:14:42;;;;;;;26.15;13.30;;;;;;;24.58;18.35;96288.47;5023579;28;20047;-79
2021/11/28 05:17:09;;;;;;;29.85;14.23;;;;;;;24.75;18.11;96288.81;5027533;28;20033;-79
2021/11/28 05:19:35;;;;;;;27.88;15.30;;;;;;;24.26;18.62;96294.97;5026193;28;20499;-79
2021/11/28 05:22:01;;;;;;;27.75;15.02;;;;;;;23.64;19.08;96292.03;5025194;28;20045;-79
2021/11/28 05:24:28;;;;;;;24.38;13.02;;;;;;;23.49;19.53;96285.56;5032308;28;20489;-79
2021/11/28 05:26:54;;;;;;;23.05;12.93;;;;;;;23.30;19.81;96284.03;5025945;28;20045;-79
2021/11/28 05:29:20;;;;;;;26.80;14.73;;;;;;;23.05;20.09;96284.44;5024973;28;20042;-79
2021/11/28 05:31:46;;;;;;;25.73;13.57;;;;;;;22.58;20.49;96284.94;5024116;28;20056;-79
2021/11/28 05:34:12;;;;;;;28.65;14.27;;;;;;;22.34;20.83;96281.97;5024508;28;20502;-79
2021/11/28 05:36:38;;;;;;;28.05;13.45;;;;;;;22.66;20.68;96277.81;5023853;28;20029;-79
2021/11/28 05:39:05;;;;;;;26.95;13.27;;;;;;;23.09;20.14;96268.25;5023988;28;20055;-79
2021/11/28 05:41:31;;;;;;;27.00;12.63;;;;;;;23.58;19.54;96267.94;5008348;28;20038;-79
2021/11/28 05:43:57;;;;;;;25.52;12.88;;;;;;;23.67;19.41;96274.28;5028936;28;20026;-79
2021/11/28 05:46:24;;;;;;;25.02;13.18;;;;;;;23.49;19.50;96274.34;5025939;28;20033;-79
2021/11/28 05:48:50;;;;;;;27.30;13.07;;;;;;;23.60;19.68;96274.63;5030153;28;20401;-79
2021/11/28 05:51:16;;;;;;;27.17;12.88;;;;;;;23.97;19.18;96270.34;5030936;28;20037;-79
2021/11/28 05:53:42;;;;;;;27.58;13.38;;;;;;;23.61;19.55;96273.38;5031303;28;20059;-79
2021/11/28 05:56:08;;;;;;;28.88;13.77;;;;;;;23.64;19.47;96274.44;5031006;28;20096;-79
2021/11/28 05:58:34;;;;;;;21.65;12.30;;;;;;;;;;5028628;28;20026;-79
2021/11/28 06:01:00;;;;;;;26.23;12.80;;;;;;;23.31;19.82;96263.22;5032195;28;20395;-79
2021/11/28 06:03:26;;;;;;;29.23;14.63;;;;;;;23.13;20.09;96261.22;5028165;28;20049;-79
2021/11/28 06:05:53;;;;;;;24.77;12.90;;;;;;;23.43;20.01;96262.25;5024169;28;20521;-79
2021/11/28 06:08:20;;;;;;;29.05;14.75;;;;;;;24.14;19.42;96267.16;5029980;28;20512;-79
2021/11/28 06:10:46;;;;;;;25.08;12.25;;;;;;;24.54;18.73;96262.66;5030262;28;20088;-78
2021/11/28 06:13:13;;;;;;;26.70;13.57;;;;;;;24.28;18.87;96263.63;5031284;28;20044;-78
2021/11/28 06:15:39;;;;;;;25.10;12.70;;;;;;;24.21;19.18;96275.22;5027708;28;20025;-79
2021/11/28 06:18:05;;;;;;;25.15;12.95;;;;;;;23.98;19.43;96269.13;5030826;28;20022;-79
2021/11/28 06:20:31;;;;;;;28.83;13.43;;;;;;;23.42;20.05;96265.50;5030572;28;20080;-79
2021/11/28 06:22:57;;;;;;;26.05;12.45;;;;;;;23.22;20.17;96269.59;5027288;28;20120;-78
2021/11/28 06:25:24;;;;;;;29.70;15.57;;;;;;;23.06;20.56;96269.19;5032497;28;20025;-78
2021/11/28 06:27:50;;;;;;;28.85;14.38;;;;;;;23.48;19.91;96269.25;5027448;28;20509;-78
2021/11/28 06:30:16;;;;;;;29.63;14.32;;;;;;;23.81;19.60;96265.16;5034772;28;20393;-78
2021/11/28 06:32:42;;;;;;;30.17;15.13;;;;;;;23.99;19.57;96273.47;5034125;28;20045;-78
2021/11/28 06:35:09;;;;;;;26.77;13.57;;;;;;;24.04;19.49;96270.00;5030469;28;20032;-78
2021/11/28 06:37:35;;;;;;;27.00;14.13;;;;;;;24.02;19.47;96271.72;5032001;28;20033;-78
2021/11/28 06:40:02;;;;;;;27.05;14.20;;;;;;;23.89;19.70;96282.41;5032013;28;20025;-78
2021/11/28 06:42:29;;;;;;;27.92;14.38;;;;;;;23.15;20.49;96278.31;5030848;28;20033;-78
2021/11/28 06:44:55;;;;;;;30.42;13.50;;;;;;;22.74;21.18;96267.06;5035100;28;20086;-78
2021/11/28 06:47:21;;;;;;;33.03;14.02;;;;;;;22.63;21.25;96248.78;5031139;28;20033;-78
2021/11/28 06:49:47;;;;;;;34.47;16.45;;;;;;;22.06;21.80;96243.28;5033738;28;20025;-78
2021/11/28 06:52:13;;;;;;;27.55;14.27;;;;;;;21.22;23.07;96239.97;5031134;28;20497;-79
2021/11/28 06:54:39;;;;;;;35.38;16.02;;;;;;;20.05;24.46;96239.94;5033357;28;20152;-78
2021/11/28 06:57:06;;;;;;;27.77;13.82;;;;;;;20.96;23.70;96250.50;5031424;28;20037;-78
2021/11/28 06:59:32;;;;;;;31.77;14.48;;;;;;;20.97;23.41;96246.50;5032149;28;20394;-78
2021/11/28 07:01:59;;;;;;;26.60;12.23;;;;;;;22.34;21.76;96247.66;5034973;28;20029;-78
2021/11/28 07:04:25;;;;;;;26.92;13.25;;;;;;;23.12;20.92;96245.69;5034740;28;20034;-78
2021/11/28 07:06:51;;;;;;;29.65;13.23;;;;;;;23.57;20.39;96239.13;5032901;28;20041;-78
2021/11/28 07:09:17;;;;;;;31.15;13.82;;;;;;;23.64;20.17;96221.97;5027508;28;20508;-78
2021/11/28 07:11:43;;;;;;;31.25;15.32;;;;;;;22.82;20.89;96226.34;5042223;28;20052;-78
2021/11/28 07:14:09;;;;;;;33.28;16.40;;;;;;;22.73;21.02;96229.94;5030692;28;20810;-78
2021/11/28 07:16:35;;;;;;;26.20;13.23;;;;;;;23.11;20.91;96232.16;5026686;28;20030;-78
2021/11/28 07:19:05;;;;;;;29.85;14.30;;;;;;;23.65;20.12;96228.34;5016111;28;20034;-78
2021/11/28 07:21:32;;;;;;;29.27;14.35;;;;;;;23.60;20.31;96224.19;5032770;28;20608;-79
2021/11/28 07:23:58;;;;;;;30.75;15.48;;;;;;;22.95;21.19;96226.91;5033226;28;20441;-78
2021/11/28 07:26:26;;;;;;;31.55;16.70;;;;;;;22.34;21.64;96225.28;5032760;28;20140;-78
2021/11/28 07:28:52;;;;;;;29.48;14.75;;;;;;;22.62;21.33;96222.03;5030988;28;20035;-79
2021/11/28 07:31:18;;;;;;;33.47;16.35;;;;;;;23.18;20.72;96218.59;5031764;28;20563;-78
2021/11/28 07:33:45;;;;;;;27.52;14.10;;;;;;;23.91;20.31;96207.03;5028394;28;20029;-78
2021/11/28 07:36:11;;;;;;;26.20;12.93;;;;;;;24.43;19.48;96203.53;5018297;28;20030;-78
2021/11/28 07:38:38;;;;;;;25.92;13.38;;;;;;;24.95;18.89;96213.16;5031397;28;20039;-78
2021/11/28 07:41:04;;;;;;;25.30;14.07;;;;;;;24.60;19.15;96201.00;5025370;28;20091;-79
2021/11/28 07:43:31;;;;;;;27.63;12.88;;;;;;;23.92;20.16;96203.72;5029414;28;20039;-78
2021/11/28 07:45:57;;;;;;;24.85;14.55;;;;;;;22.69;21.50;96199.31;5023463;28;20025;-80
2021/11/28 07:48:23;;;;;;;24.60;12.85;;;;;;;22.92;21.52;96202.69;5030420;28;20095;-79
2021/11/28 07:50:51;;;;;;;23.15;12.50;;;;;;;23.58;20.60;96203.50;5028919;28;20084;-79
2021/11/28 07:53:17;;;;;;;21.48;11.95;;;;;;;24.17;20.37;96207.31;5033053;28;20049;-78
2021/11/28 07:55:43;;;;;;;25.55;13.90;;;;;;;24.65;19.59;96197.53;5026776;28;20033;-78
2021/11/28 07:58:09;;;;;;;22.98;11.50;;;;;;;24.96;19.53;96202.69;5033354;28;20442;-78
2021/11/28 08:00:36;;;;;;;25.10;13.27;;;;;;;25.22;19.35;96200.84;5032419;28;20029;-78
2021/11/28 08:03:03;;;;;;;23.73;12.43;;;;;;;24.42;20.00;96201.19;5027825;28;20159;-78
2021/11/28 08:05:31;;;;;;;24.20;12.30;;;;;;;24.60;20.36;96210.22;5027423;28;20065;-78
2021/11/28 08:07:58;;;;;;;22.17;11.68;;;;;;;24.52;20.13;96199.84;5026839;28;20580;-78
2021/11/28 08:10:25;;;;;;;24.33;14.40;;;;;;;23.26;21.91;96205.03;5028720;28;20461;-79
2021/11/28 08:12:51;;;;;;;26.52;15.48;;;;;;;20.38;25.65;96214.06;5031450;28;20481;-78
2021/11/28 08:15:18;;;;;;;37.38;19.85;;;;;;;19.29;26.98;96221.38;5033147;28;20033;-79
2021/11/28 08:17:46;;;;;;;27.08;15.23;;;;;;;18.44;28.52;96225.16;5033390;28;20469;-79
2021/11/28 08:20:14;;;;;;;32.33;18.08;;;;;;;17.85;29.82;96228.41;5032088;28;20456;-79
2021/11/28 08:22:40;;;;;;;29.02;14.88;;;;;;;19.13;27.56;96221.50;5032594;28;20041;-78
2021/11/28 08:25:09;;;;;;;33.13;17.10;;;;;;;18.33;28.73;96225.47;5031844;28;20108;-80
2021/11/28 08:27:35;;;;;;;36.60;19.27;;;;;;;18.11;29.28;96223.72;5030065;28;20029;-80
2021/11/28 08:30:05;;;;;;;34.42;18.90;;;;;;;18.70;28.42;96215.66;5029229;28;20029;-79
2021/11/28 08:32:31;;;;;;;36.67;19.77;;;;;;;19.88;26.79;96215.00;5028143;28;20489;-79
2021/11/28 08:34:58;;;;;;;34.42;19.17;;;;;;;20.13;26.40;96208.59;5030337;28;20277;-79
2021/11/28 08:37:24;;;;;;;38.92;20.08;;;;;;;19.62;27.10;96199.63;5032448;28;20544;-79
2021/11/28 08:39:50;;;;;;;41.63;21.77;;;;;;;17.08;30.72;96206.16;5029184;28;20038;-79
2021/11/28 08:42:16;;;;;;;41.15;21.67;;;;;;;17.03;30.92;96190.81;5032189;28;20029;-79
2021/11/28 08:44:42;;;;;;;48.50;24.88;;;;;;;16.96;31.08;96190.97;5031273;28;20037;-79
2021/11/28 08:47:09;;;;;;;44.67;23.92;;;;;;;16.78;32.14;96187.81;5032124;28;20037;-78
2021/11/28 08:49:35;;;;;;;44.35;23.92;;;;;;;17.32;31.18;96190.13;5032132;28;20030;-79
2021/11/28 08:52:02;;;;;;;39.33;21.23;;;;;;;20.26;26.78;96187.03;5033006;28;20037;-79
2021/11/28 08:54:30;;;;;;;37.20;20.67;;;;;;;21.01;25.79;96187.75;5031766;28;20064;-79
2021/11/28 08:56:58;;;;;;;37.33;20.60;;;;;;;21.57;24.29;96191.06;5032143;28;20029;-79
2021/11/28 08:59:26;;;;;;;33.22;17.70;;;;;;;21.56;24.54;96199.91;5031306;28;20037;-79
2021/11/28 09:01:53;;;;;;;33.83;19.73;;;;;;;22.51;23.10;96204.16;5022567;28;20382;-79
2021/11/28 09:04:19;;;;;;;30.95;17.98;;;;;;;22.83;22.85;96208.28;5026404;28;20048;-79
2021/11/28 09:06:45;;;;;;;32.78;18.38;;;;;;;22.79;22.68;96208.47;5027827;28;20030;-81
2021/11/28 09:09:11;;;;;;;37.70;22.23;;;;;;;20.22;26.10;96216.25;5025835;28;20064;-80
2021/11/28 09:11:37;;;;;;;40.88;22.70;;;;;;;19.05;27.74;96211.81;5025954;28;20041;-79
2021/11/28 09:14:05;;;;;;;38.92;22.13;;;;;;;19.31;27.74;96209.78;5025854;28;20116;-79
2021/11/28 09:16:31;;;;;;;38.85;21.90;;;;;;;20.01;26.76;96217.75;5023528;28;20140;-79
2021/11/28 09:19:02;;;;;;;32.90;18.90;;;;;;;21.01;25.26;96219.22;5024650;28;20029;-79
2021/11/28 09:21:29;;;;;;;36.38;18.95;;;;;;;22.70;22.94;96211.28;5022986;28;20065;-79
2021/11/28 09:26:44;;;;;;;32.22;18.60;;;;;;;21.60;24.70;96192.16;5025379;28;20037;-79
2021/11/28 09:29:10;;;;;;;42.92;22.95;;;;;;;21.17;25.05;96190.31;5023356;28;20043;-79
2021/11/28 09:31:37;;;;;;;32.47;17.25;;;;;;;22.42;23.86;96196.56;5021259;28;20045;-79
2021/11/28 09:34:03;;;;;;;33.85;19.55;;;;;;;22.71;23.52;96186.91;5023274;28;20121;-79
2021/11/28 09:36:32;;;;;;;42.53;21.98;;;;;;;21.71;24.45;96182.06;5022629;28;20056;-78
2021/11/28 09:39:00;;;;;;;38.58;21.27;;;;;;;20.67;25.62;96180.31;5020870;28;20069;-79
2021/11/28 09:41:35;;;;;;;37.08;21.67;;;;;;;20.58;26.23;96177.50;5024790;28;20049;-79
2021/11/28 09:44:09;;;;;;;30.77;17.00;;;;;;;21.80;24.59;96181.31;5027203;28;20049;-79
2021/11/28 09:46:37;;;;;;;35.22;20.73;;;;;;;22.51;23.31;96171.38;5025076;28;20029;-79
2021/11/28 09:49:05;;;;;;;36.03;19.17;;;;;;;21.45;24.42;96160.50;5029703;28;20436;-79
2021/11/28 09:51:33;;;;;;;37.03;21.55;;;;;;;20.67;25.49;96158.78;5029624;28;20061;-79
2021/11/28 09:54:03;;;;;;;40.13;21.83;;;;;;;20.23;26.17;96145.38;5026034;28;20528;-79
2021/11/28 09:56:33;;;;;;;33.90;20.05;;;;;;;20.32;26.23;96126.69;5019402;28;20378;-79
2021/11/28 09:59:00;;;;;;;33.42;19.60;;;;;;;20.87;25.46;96113.00;5028531;28;20101;-79
2021/11/28 10:01:26;;;;;;;40.85;21.70;;;;;;;21.55;24.24;96114.56;5026974;28;20537;-79
2021/11/28 10:03:53;;;;;;;27.83;15.95;;;;;;;22.50;23.37;96108.28;5030919;28;20036;-79
2021/11/28 10:06:22;;;;;;;30.15;18.30;;;;;;;22.20;23.33;96100.13;5034193;28;20099;-79
2021/11/28 10:08:48;;;;;;;34.05;18.52;;;;;;;21.69;24.33;96100.00;5030800;28;20742;-79
2021/11/28 10:11:17;;;;;;;30.92;16.60;;;;;;;21.48;24.61;96093.31;5031640;28;20026;-78
2021/11/28 10:13:48;;;;;;;26.73;15.25;;;;;;;23.19;23.08;96096.97;5026565;28;20049;-79
2021/11/28 10:16:15;;;;;;;40.95;20.17;;;;;;;22.93;22.91;96097.88;5023046;28;20034;-80
2021/11/28 10:18:41;;;;;;;26.08;15.13;;;;;;;23.48;22.24;96093.53;5020862;28;20045;-79
2021/11/28 10:21:08;;;;;;;36.17;19.92;;;;;;;23.54;22.10;96090.84;5023164;28;20060;-79
2021/11/28 10:23:34;;;;;;;37.72;20.63;;;;;;;23.61;21.88;96091.28;5022367;28;20071;-79
2021/11/28 10:26:33;;;;;;;26.00;15.45;;;;;;;23.60;21.78;96086.91;5027864;28;20102;-79
2021/11/28 10:29:15;;;;;;;29.80;16.90;;;;;;;23.17;22.08;96087.50;5026450;28;20072;-79
2021/11/28 10:31:50;;;;;;;25.08;14.52;;;;;;;23.50;22.73;96090.28;5027397;28;20036;-79
2021/11/28 10:34:21;;;;;;;33.00;18.92;;;;;;;23.27;22.53;96083.38;5028075;28;20544;-79
2021/11/28 10:36:50;;;;;;;28.02;16.23;;;;;;;24.12;21.96;96077.00;5031770;28;20033;-79
2021/11/28 10:39:23;;;;;;;31.50;17.10;;;;;;;24.91;21.28;96063.00;5020328;28;20486;-79
2021/11/28 10:41:55;;;;;;;30.58;17.40;;;;;;;24.81;20.89;96064.41;5031053;28;20498;-79
2021/11/28 10:44:25;;;;;;;35.45;19.20;;;;;;;24.68;20.39;96050.63;5028839;28;20037;-79
2021/11/28 10:47:13;;;;;;;30.33;17.88;;;;;;;25.06;20.41;96038.47;5030982;28;20029;-79
2021/11/28 10:49:41;;;;;;;25.77;15.65;;;;;;;25.39;19.86;96036.09;5028090;28;20077;-80
2021/11/28 10:52:14;;;;;;;28.27;15.43;;;;;;;25.42;20.12;96037.91;5026392;28;20038;-79
2021/11/28 10:54:45;;;;;;;32.20;17.48;;;;;;;25.32;20.17;96047.75;5028919;28;20033;-79
2021/11/28 10:57:13;;;;;;;;;;;;;;;25.13;19.94;96049.28;5026018;28;20505;-79
2021/11/28 10:59:41;;;;;;;28.05;16.50;;;;;;;25.34;20.64;96048.03;5027156;28;19917;-80
2021/11/28 11:02:24;;;;;;;25.52;14.57;;;;;;;25.52;20.07;96055.44;5026838;28;20037;-79
2021/11/28 11:04:56;;;;;;;26.83;16.90;;;;;;;25.40;19.91;96048.88;5025374;28;20041;-79
2021/11/28 11:07:23;;;;;;;26.48;15.25;;;;;;;25.57;19.81;96049.91;5026714;28;20304;-79
2021/11/28 11:09:55;;;;;;;27.27;15.98;;;;;;;25.27;20.03;96049.25;5027574;28;20087;-79
2021/11/28 11:12:35;;;;;;;23.55;14.15;;;;;;;25.33;20.31;96046.50;5027794;28;20037;-79
2021/11/28 11:15:01;;;;;;;25.45;14.18;;;;;;;25.22;20.20;96041.50;5028417;28;20494;-79
2021/11/28 11:17:31;;;;;;;24.42;14.68;;;;;;;24.32;21.07;96037.06;5030105;28;20041;-79
2021/11/28 11:19:58;;;;;;;31.33;18.05;;;;;;;24.20;20.97;96038.13;5034283;28;20039;-80
2021/11/28 11:22:27;;;;;;;26.33;14.57;;;;;;;24.40;21.16;96024.19;5027043;28;20049;-79
2021/11/28 11:24:59;;;;;;;27.30;16.02;;;;;;;23.94;21.17;96027.44;5029822;28;20044;-79
2021/11/28 11:27:30;;;;;;;24.45;14.18;;;;;;;23.70;21.75;96018.34;5028915;28;20053;-79
2021/11/28 11:30:00;;;;;;;27.60;15.00;;;;;;;23.41;21.75;96014.72;5025941;28;20025;-79